Wetterdaten für den Flughafen Lübeck Blankensee


ADDS - METARS form results Aviation Digital Data Service (ADDS) Output produced by METARs form (1147 UTC 16 May 2021)
found at http://www.aviationweather.gov/metar/data/
 
EDHL 161120Z 16007KT 120V190 9999 SCT025CB 15/08 Q1000
TAF EDHL 161100Z 1612/1621 19006KT 9999 SCT020 TEMPO 1612/1619 SHRA SCT020CB PROB30 TEMPO 1612/1618 21013KT 4000 TSRA BKN014CB

Nord: Hamburg, Lübeck
Ost: Schwerin, Rostock
Süd: Hannover
West: Bremen, Nordhloz

 

Copyright © 2016 Flugschule Hohensee